Time;durP1;ratioP1;P1;durP2;ratioP2;P2;SDS_P1;SDS_P2;PMS_P1;PMS_P2;Temp;Humidity;BMP_temperature;BMP_pressure;BME280_temperature;BME280_humidity;BME280_pressure;Samples;Min_cycle;Max_cycle;Signal;HPM_P1;HPM_P2
2022/10/20 00:00:06;;;;;;;1.00;0.73;;;21.40;44.50;20.40;101635.00;;;;5069881;28;20142;-68
2022/10/20 00:02:32;;;;;;;0.88;0.63;;;21.30;44.50;20.40;101640.00;;;;5071012;28;20313;-68
2022/10/20 00:04:58;;;;;;;1.30;1.13;;;21.30;44.50;20.40;101658.00;;;;5072062;28;20232;-68
2022/10/20 00:07:24;;;;;;;1.23;0.90;;;21.30;44.50;20.40;101647.00;;;;5068080;28;20115;-68
2022/10/20 00:09:49;;;;;;;3.07;0.80;;;21.30;44.50;20.40;101640.00;;;;5074559;28;20439;-68
2022/10/20 00:12:15;;;;;;;1.80;0.70;;;21.30;44.40;20.40;101643.00;;;;5070750;28;20028;-68
2022/10/20 00:14:41;;;;;;;1.73;0.90;;;21.30;44.40;20.40;101634.00;;;;5071437;28;20108;-68
2022/10/20 00:17:06;;;;;;;0.90;0.77;;;21.30;44.50;20.40;101640.00;;;;5070700;28;20066;-68
2022/10/20 00:19:32;;;;;;;0.73;0.67;;;21.30;44.50;20.40;101630.00;;;;5069921;28;20103;-68
2022/10/20 00:21:59;;;;;;;1.43;0.90;;;21.30;44.40;20.40;101632.00;;;;5070861;28;20365;-68
2022/10/20 00:24:24;;;;;;;2.35;0.80;;;21.30;44.40;20.40;101630.00;;;;5071091;28;20046;-68
2022/10/20 00:26:50;;;;;;;0.77;0.53;;;21.30;44.40;20.40;101636.00;;;;5074805;28;20299;-68
2022/10/20 00:29:16;;;;;;;0.80;0.70;;;21.30;44.40;20.40;101620.00;;;;5070943;28;20119;-68
2022/10/20 00:31:42;;;;;;;0.83;0.70;;;21.30;44.40;20.40;101619.00;;;;5068875;28;20040;-68
2022/10/20 00:34:08;;;;;;;1.17;0.73;;;21.30;44.40;20.30;101616.00;;;;5086055;28;20056;-68
2022/10/20 00:36:34;;;;;;;0.73;0.63;;;21.20;44.30;20.30;101605.00;;;;5073450;28;21737;-68
2022/10/20 00:39:00;;;;;;;1.63;0.80;;;21.30;44.40;20.30;101596.00;;;;5072546;28;20036;-68
2022/10/20 00:41:26;;;;;;;;;;;21.30;44.40;20.30;101594.00;;;;5075377;28;20466;-68
2022/10/20 00:44:00;;;;;;;1.90;0.70;;;21.30;44.60;20.30;101586.00;;;;5071408;28;19977;-68
2022/10/20 00:46:36;;;;;;;1.90;0.70;;;21.30;44.30;20.30;101589.00;;;;5059364;28;20089;-68
2022/10/20 00:49:11;;;;;;;1.17;0.60;;;21.30;44.30;20.30;101585.00;;;;5067204;28;20535;-68
2022/10/20 00:51:37;;;;;;;0.80;0.70;;;21.20;44.30;20.30;101586.00;;;;5079792;28;20244;-68
2022/10/20 00:54:09;;;;;;;0.97;0.60;;;21.20;44.30;20.30;101583.00;;;;5074523;28;20081;-68
2022/10/20 00:56:37;;;;;;;2.95;0.80;;;21.30;44.30;20.30;101584.00;;;;5048278;28;20025;-68
2022/10/20 00:59:03;;;;;;;1.42;0.60;;;21.30;44.40;20.30;101573.00;;;;5050261;28;20449;-68
2022/10/20 01:01:29;;;;;;;1.33;0.50;;;21.30;44.40;20.30;101578.00;;;;5065726;28;20021;-68
2022/10/20 01:03:54;;;;;;;1.67;0.60;;;21.30;44.40;20.30;101580.00;;;;5075614;28;20056;-68
2022/10/20 01:06:21;;;;;;;1.40;0.63;;;21.30;44.40;20.30;101569.00;;;;5048370;28;20025;-68
2022/10/20 01:08:48;;;;;;;0.75;0.50;;;21.20;44.40;20.30;101569.00;;;;5072507;28;20033;-68
2022/10/20 01:11:20;;;;;;;1.10;0.63;;;21.30;44.40;20.30;101559.00;;;;5069729;28;20040;-68
2022/10/20 01:14:21;;;;;;;1.05;0.90;;;21.30;44.40;20.30;101562.00;;;;5069327;28;20032;-68
2022/10/20 01:17:04;;;;;;;1.63;0.65;;;21.20;44.30;20.30;101552.00;;;;5059122;28;20490;-68
2022/10/20 01:20:18;;;;;;;0.88;0.75;;;21.20;44.30;20.30;101543.00;;;;5067623;28;20032;-68
2022/10/20 01:22:58;;;;;;;0.98;0.57;;;21.20;44.40;20.20;101527.00;;;;5071816;28;20047;-68
2022/10/20 01:26:16;;;;;;;1.08;0.50;;;21.20;44.30;20.20;101522.00;;;;5072662;28;20030;-68
2022/10/20 01:28:56;;;;;;;1.40;0.63;;;21.20;44.30;20.20;101523.00;;;;5068869;28;20035;-68
2022/10/20 01:31:54;;;;;;;0.65;0.65;;;21.20;44.30;20.20;101512.00;;;;5049806;28;20043;-68
2022/10/20 01:34:49;;;;;;;4.32;0.80;;;21.20;44.40;20.20;101513.00;;;;5064155;28;20071;-68
2022/10/20 01:37:27;;;;;;;2.20;0.70;;;21.20;44.40;20.20;101511.00;;;;5085133;28;20021;-68
2022/10/20 01:40:01;;;;;;;0.85;0.63;;;21.20;44.40;20.20;101503.00;;;;5068080;28;20078;-68
2022/10/20 01:42:28;;;;;;;1.02;0.80;;;21.20;44.40;20.20;101502.00;;;;5055184;28;20033;-68
2022/10/20 01:44:56;;;;;;;;;;;21.20;44.40;20.20;101503.00;;;;5085886;28;20124;-68
2022/10/20 01:47:22;;;;;;;1.00;0.68;;;21.20;44.60;20.20;101499.00;;;;5068453;28;20354;-68
2022/10/20 01:49:48;;;;;;;2.30;1.02;;;21.20;44.40;20.20;101493.00;;;;5062874;28;20086;-68
2022/10/20 01:52:13;;;;;;;1.13;0.70;;;21.20;44.40;20.20;101491.00;;;;5050563;28;20040;-68
2022/10/20 01:54:39;;;;;;;3.20;0.82;;;21.20;44.40;20.20;101494.00;;;;5076617;28;20385;-68
2022/10/20 01:57:37;;;;;;;2.33;1.07;;;21.10;44.30;20.20;101496.00;;;;5061388;28;20063;-68
2022/10/20 02:00:11;;;;;;;1.15;1.08;;;21.20;44.40;20.20;101489.00;;;;5090815;28;20028;-68
2022/10/20 02:02:47;;;;;;;1.88;1.00;;;21.10;44.30;20.20;101481.00;;;;5053173;28;20033;-68
2022/10/20 02:05:50;;;;;;;1.17;0.73;;;21.10;44.30;20.20;101481.00;;;;5082300;28;20311;-68
2022/10/20 02:08:43;;;;;;;1.70;0.70;;;21.10;44.30;20.20;101474.00;;;;5068949;28;20035;-68
2022/10/20 02:11:18;;;;;;;0.98;0.73;;;21.10;44.30;20.20;101469.00;;;;5060967;28;20032;-68
2022/10/20 02:13:44;;;;;;;2.20;0.77;;;21.10;44.30;20.20;101473.00;;;;5051090;28;20029;-68
2022/10/20 02:16:15;;;;;;;0.97;0.80;;;21.10;44.40;20.20;101482.00;;;;5047659;28;20193;-68
2022/10/20 02:18:42;;;;;;;1.02;0.63;;;21.10;44.30;20.20;101473.00;;;;5047760;28;20025;-68
2022/10/20 02:21:07;;;;;;;1.30;0.82;;;21.10;44.40;20.20;101473.00;;;;5067585;28;20035;-68
2022/10/20 02:23:37;;;;;;;1.20;1.10;;;21.10;44.30;20.20;101476.00;;;;5056888;28;20033;-68
2022/10/20 02:26:07;;;;;;;2.83;0.98;;;21.10;44.30;20.20;101470.00;;;;5085770;28;20498;-68
2022/10/20 02:28:34;;;;;;;1.05;0.80;;;21.10;44.30;20.20;101469.00;;;;5049781;28;20108;-68
2022/10/20 02:31:01;;;;;;;0.95;0.80;;;21.10;44.30;20.20;101463.00;;;;5093926;28;20025;-68
2022/10/20 02:33:27;;;;;;;0.68;0.68;;;21.20;44.40;20.20;101451.00;;;;5051469;28;20470;-68
2022/10/20 02:35:57;;;;;;;1.90;0.70;;;21.10;44.30;20.20;101449.00;;;;5073088;28;20042;-68
2022/10/20 02:38:23;;;;;;;2.42;1.10;;;21.10;44.30;20.20;101441.00;;;;5065803;28;20044;-68
2022/10/20 02:40:49;;;;;;;2.70;0.73;;;21.10;44.30;20.20;101437.00;;;;5092083;28;20033;-68
2022/10/20 02:43:15;;;;;;;2.03;1.03;;;21.10;44.30;20.20;101440.00;;;;5068843;28;20040;-68
2022/10/20 02:45:40;;;;;;;1.20;1.03;;;21.10;44.20;20.20;101425.00;;;;5074846;28;20518;-68
2022/10/20 02:48:08;;;;;;;2.10;1.00;;;21.10;44.20;20.20;101421.00;;;;5066597;28;20064;-68
2022/10/20 02:50:35;;;;;;;3.45;1.70;;;21.10;44.20;20.20;101413.00;;;;5073147;28;20067;-68
2022/10/20 02:53:01;;;;;;;1.48;0.90;;;21.10;44.30;20.20;101411.00;;;;5068943;28;20058;-68
2022/10/20 02:55:26;;;;;;;2.28;0.85;;;21.10;44.30;20.20;101410.00;;;;5075870;28;20591;-68
2022/10/20 02:57:52;;;;;;;1.93;0.90;;;21.10;44.20;20.20;101402.00;;;;5059881;28;20041;-68
2022/10/20 03:00:19;;;;;;;2.30;1.13;;;21.10;44.20;20.20;101394.00;;;;5072179;28;20462;-68
2022/10/20 03:02:45;;;;;;;1.13;1.00;;;21.10;44.20;20.20;101388.00;;;;5058736;28;20064;-68
2022/10/20 03:05:10;;;;;;;2.57;1.00;;;21.10;44.20;20.20;101390.00;;;;5072957;28;20372;-68
2022/10/20 03:07:36;;;;;;;1.27;1.03;;;21.10;44.20;20.20;101386.00;;;;5067608;28;20067;-68
2022/10/20 03:10:02;;;;;;;1.30;1.07;;;21.10;44.20;20.20;101382.00;;;;5071832;28;20162;-68
2022/10/20 03:12:28;;;;;;;1.38;0.95;;;21.10;44.20;20.20;101383.00;;;;5074190;28;20055;-68
2022/10/20 03:14:54;;;;;;;1.60;1.00;;;21.10;44.10;20.20;101381.00;;;;5064895;28;20052;-68
2022/10/20 03:17:19;;;;;;;1.00;0.90;;;21.10;44.20;20.20;101380.00;;;;5065211;28;20124;-68
2022/10/20 03:19:45;;;;;;;1.23;0.93;;;21.10;44.10;20.20;101378.00;;;;5068830;28;20470;-68
2022/10/20 03:22:11;;;;;;;0.90;0.90;;;21.10;44.10;20.20;101372.00;;;;5071343;28;20450;-68
2022/10/20 03:24:37;;;;;;;1.10;0.97;;;21.10;44.10;20.10;101372.00;;;;5069982;28;20112;-68
2022/10/20 03:27:02;;;;;;;3.57;0.97;;;21.10;44.10;20.20;101373.00;;;;5076658;28;20595;-68
2022/10/20 03:29:28;;;;;;;4.50;1.00;;;21.10;44.10;20.20;101366.00;;;;5072360;28;20145;-68
2022/10/20 03:31:54;;;;;;;2.30;1.10;;;21.10;44.10;20.20;101361.00;;;;5068849;28;20100;-68
2022/10/20 03:34:20;;;;;;;1.20;1.07;;;21.10;44.10;20.20;101359.00;;;;5073457;28;20024;-68
2022/10/20 03:36:45;;;;;;;0.97;0.87;;;21.10;44.10;20.20;101364.00;;;;5076223;28;20063;-68
2022/10/20 03:39:11;;;;;;;1.43;0.90;;;21.10;44.10;20.20;101355.00;;;;5072001;28;20044;-68
2022/10/20 03:41:37;;;;;;;1.07;0.90;;;21.10;44.10;20.20;101356.00;;;;5087697;28;20481;-68
2022/10/20 03:44:02;;;;;;;2.47;1.43;;;21.10;44.00;20.10;101357.00;;;;5086665;28;20743;-68
2022/10/20 03:46:28;;;;;;;1.37;1.13;;;21.10;44.00;20.20;101345.00;;;;5074450;28;20103;-68
2022/10/20 03:48:54;;;;;;;3.20;1.10;;;21.10;44.00;20.20;101340.00;;;;5065014;28;20119;-68
2022/10/20 03:51:20;;;;;;;1.03;1.00;;;21.10;44.00;20.20;101341.00;;;;5089375;28;20162;-68
2022/10/20 03:53:45;;;;;;;1.17;1.07;;;21.00;43.90;20.20;101338.00;;;;5061337;28;20137;-68
2022/10/20 03:56:15;;;;;;;1.37;1.10;;;21.10;44.00;20.10;101337.00;;;;5073609;28;20158;-68
2022/10/20 03:58:41;;;;;;;2.03;1.10;;;21.10;43.90;20.20;101337.00;;;;5071344;28;20037;-68
2022/10/20 04:01:08;;;;;;;1.50;1.03;;;21.10;43.90;20.20;101332.00;;;;5071579;28;20046;-68
2022/10/20 04:03:33;;;;;;;;;;;21.10;43.90;20.10;101329.00;;;;5070030;28;20025;-68
2022/10/20 04:05:59;;;;;;;2.45;1.20;;;21.10;44.20;20.10;101330.00;;;;5071570;28;20234;-68
2022/10/20 04:08:25;;;;;;;1.40;1.30;;;21.00;43.80;20.10;101331.00;;;;5070108;28;20028;-68
2022/10/20 04:10:51;;;;;;;4.07;1.23;;;21.10;43.80;20.10;101322.00;;;;5074050;28;20120;-68
2022/10/20 04:13:16;;;;;;;1.57;1.27;;;21.10;43.90;20.10;101313.00;;;;5071746;28;20024;-68
2022/10/20 04:15:42;;;;;;;1.43;0.97;;;21.10;43.90;20.10;101309.00;;;;5070330;28;20083;-68
2022/10/20 04:18:08;;;;;;;1.13;1.03;;;21.10;43.90;20.10;101303.00;;;;5069223;28;20131;-68
2022/10/20 04:20:33;;;;;;;1.20;1.10;;;21.10;43.80;20.10;101302.00;;;;5079102;28;20064;-68
2022/10/20 04:22:59;;;;;;;1.03;0.90;;;21.10;43.80;20.10;101301.00;;;;5073475;28;20115;-68
2022/10/20 04:25:25;;;;;;;2.50;1.23;;;21.10;43.80;20.10;101297.00;;;;5058419;28;20100;-68
2022/10/20 04:27:51;;;;;;;2.87;1.07;;;21.10;43.80;20.10;101287.00;;;;5072361;28;20123;-68
2022/10/20 04:30:16;;;;;;;1.57;1.30;;;21.10;43.80;20.10;101282.00;;;;5064488;28;20571;-68
2022/10/20 04:32:42;;;;;;;2.57;1.10;;;21.10;43.80;20.10;101274.00;;;;5065717;28;20374;-68
2022/10/20 04:35:09;;;;;;;2.07;1.60;;;21.10;43.80;20.10;101268.00;;;;5072620;28;20112;-68
2022/10/20 04:37:35;;;;;;;1.10;1.00;;;21.10;43.80;20.10;101267.00;;;;5068215;28;20059;-68
2022/10/20 04:40:01;;;;;;;1.77;1.30;;;21.10;43.80;20.10;101261.00;;;;5072756;28;20033;-68
2022/10/20 04:42:26;;;;;;;1.42;1.10;;;21.10;43.80;20.10;101259.00;;;;5066741;28;20501;-68
2022/10/20 04:44:52;;;;;;;2.43;1.13;;;21.10;43.80;20.10;101257.00;;;;5068083;28;20051;-68
2022/10/20 04:47:18;;;;;;;1.30;1.20;;;21.10;43.80;20.10;101250.00;;;;5068452;28;20557;-68
2022/10/20 04:49:44;;;;;;;2.17;1.20;;;21.10;43.80;20.10;101250.00;;;;5066474;28;20060;-68
2022/10/20 04:52:09;;;;;;;1.90;1.00;;;21.10;43.80;20.10;101239.00;;;;5072146;28;20107;-68
2022/10/20 04:54:35;;;;;;;1.17;1.00;;;21.10;43.80;20.10;101254.00;;;;5068366;28;20484;-68
2022/10/20 04:57:02;;;;;;;1.63;1.30;;;21.10;43.80;20.10;101257.00;;;;5074873;28;20520;-68
2022/10/20 04:59:28;;;;;;;2.00;1.20;;;21.10;43.70;20.10;101253.00;;;;5069683;28;20370;-68
2022/10/20 05:01:54;;;;;;;2.00;1.30;;;21.10;43.80;20.10;101248.00;;;;5070574;28;20035;-68
2022/10/20 05:04:20;;;;;;;1.10;1.10;;;21.10;43.70;20.10;101238.00;;;;5074698;28;20107;-68
2022/10/20 05:06:47;;;;;;;1.33;1.02;;;21.10;43.80;20.10;101243.00;;;;5070823;28;20021;-68
2022/10/20 05:09:13;;;;;;;0.95;0.95;;;21.10;43.70;20.10;101232.00;;;;5074891;28;20028;-68
2022/10/20 05:11:38;;;;;;;1.45;1.33;;;21.10;43.70;20.10;101229.00;;;;5065662;28;20044;-68
2022/10/20 05:14:04;;;;;;;1.30;1.17;;;21.00;43.60;20.10;101217.00;;;;5071690;28;20508;-68
2022/10/20 05:16:30;;;;;;;1.93;1.60;;;21.00;43.60;20.10;101213.00;;;;5065373;28;20039;-68
2022/10/20 05:18:56;;;;;;;1.20;1.10;;;21.10;43.70;20.10;101217.00;;;;5050817;28;20564;-68
2022/10/20 05:21:27;;;;;;;1.45;1.23;;;21.10;43.60;20.10;101213.00;;;;5064873;28;20036;-68
2022/10/20 05:23:58;;;;;;;1.70;1.05;;;21.10;43.60;20.10;101209.00;;;;5073900;28;20168;-68
2022/10/20 05:26:24;;;;;;;2.20;1.30;;;21.10;43.50;20.10;101213.00;;;;5069093;28;20055;-68
2022/10/20 05:28:50;;;;;;;2.08;1.20;;;21.10;43.70;20.10;101206.00;;;;5074630;28;20381;-68
2022/10/20 05:31:17;;;;;;;1.90;1.40;;;21.10;43.60;20.10;101197.00;;;;5070188;28;20487;-68
2022/10/20 05:33:45;;;;;;;1.70;1.42;;;21.10;43.60;20.10;101189.00;;;;5067484;28;20025;-68
2022/10/20 05:36:12;;;;;;;1.83;1.38;;;21.10;43.60;20.10;101182.00;;;;5046674;28;20479;-68
2022/10/20 05:38:39;;;;;;;3.30;1.40;;;21.10;43.60;20.10;101178.00;;;;5067402;28;20450;-68
2022/10/20 05:41:25;;;;;;;3.08;1.52;;;21.00;43.50;20.10;101182.00;;;;5081768;28;20024;-68
2022/10/20 05:43:56;;;;;;;1.27;1.00;;;21.00;43.50;20.10;101182.00;;;;5066460;28;20039;-68
2022/10/20 05:46:21;;;;;;;2.45;1.20;;;21.10;43.60;20.10;101170.00;;;;5068937;28;20386;-68
2022/10/20 05:48:47;;;;;;;1.10;1.00;;;21.10;43.60;20.10;101164.00;;;;5064226;28;20032;-68
2022/10/20 05:51:18;;;;;;;3.37;1.57;;;21.10;43.50;20.10;101169.00;;;;5068682;28;20032;-68
2022/10/20 05:53:45;;;;;;;3.13;1.35;;;21.10;43.50;20.10;101164.00;;;;5082158;28;20033;-68
2022/10/20 05:56:14;;;;;;;1.52;1.10;;;21.10;43.50;20.10;101164.00;;;;5073272;28;20035;-68
2022/10/20 05:58:39;;;;;;;1.30;1.20;;;21.10;43.50;20.10;101158.00;;;;5062949;28;20035;-68
2022/10/20 06:01:15;;;;;;;1.73;1.40;;;21.10;43.50;20.10;101150.00;;;;5075780;28;20024;-68
2022/10/20 06:03:41;;;;;;;1.40;1.30;;;21.10;43.50;20.10;101150.00;;;;5074736;28;20458;-68
2022/10/20 06:06:08;;;;;;;2.07;1.10;;;21.10;43.50;20.10;101141.00;;;;5074857;28;20488;-68
2022/10/20 06:08:34;;;;;;;2.83;1.30;;;21.10;43.50;20.10;101127.00;;;;5066171;28;20043;-68
2022/10/20 06:11:08;;;;;;;2.70;1.30;;;21.10;43.50;20.10;101131.00;;;;5079456;28;20029;-68
2022/10/20 06:13:34;;;;;;;1.55;1.42;;;21.10;43.40;20.10;101124.00;;;;5069748;28;20115;-68
2022/10/20 06:16:08;;;;;;;1.50;1.40;;;21.10;43.50;20.10;101120.00;;;;5073769;28;20389;-68
2022/10/20 06:18:34;;;;;;;1.63;1.52;;;21.10;43.40;20.10;101118.00;;;;5069301;28;20512;-68
2022/10/20 06:21:11;;;;;;;5.10;1.85;;;21.10;43.40;20.10;101122.00;;;;5066564;28;20028;-68
2022/10/20 06:23:36;;;;;;;6.60;1.90;;;21.00;43.40;20.10;101122.00;;;;5066267;28;20214;-68
2022/10/20 06:26:04;;;;;;;4.87;1.57;;;21.10;43.40;20.10;101126.00;;;;5082792;28;20036;-68
2022/10/20 06:28:31;;;;;;;7.70;1.88;;;21.10;43.40;20.10;101111.00;;;;5055545;28;20123;-68
2022/10/20 06:30:57;;;;;;;3.03;1.63;;;21.10;43.40;20.10;101125.00;;;;5083073;28;20125;-68
2022/10/20 06:33:23;;;;;;;7.30;1.83;;;21.10;43.40;20.10;101123.00;;;;5074422;28;20036;-68
2022/10/20 06:35:49;;;;;;;5.47;1.67;;;21.10;43.40;20.10;101124.00;;;;5069782;28;20040;-68
2022/10/20 06:38:15;;;;;;;6.50;1.80;;;21.10;43.40;20.10;101118.00;;;;5076127;28;20034;-68
2022/10/20 06:40:41;;;;;;;7.53;1.60;;;21.10;43.50;20.10;101124.00;;;;5070805;28;20108;-68
2022/10/20 06:43:06;;;;;;;2.72;1.30;;;21.10;43.40;20.10;101119.00;;;;5091830;28;20024;-68
2022/10/20 06:45:32;;;;;;;5.00;1.53;;;21.10;43.40;20.10;101115.00;;;;5073393;28;20036;-68
2022/10/20 06:47:58;;;;;;;4.00;1.47;;;21.10;43.40;20.10;101132.00;;;;5069169;28;20134;-68
2022/10/20 06:50:23;;;;;;;2.50;1.40;;;21.10;43.40;20.10;101133.00;;;;5066501;28;20103;-68
2022/10/20 06:52:49;;;;;;;4.67;1.50;;;21.10;43.40;20.10;101129.00;;;;5073893;28;20127;-68
2022/10/20 06:55:15;;;;;;;5.93;1.50;;;21.10;43.40;20.10;101128.00;;;;5072198;28;20133;-68
2022/10/20 06:57:41;;;;;;;3.30;1.30;;;21.10;43.40;20.10;101126.00;;;;5065483;28;20272;-68
2022/10/20 07:00:08;;;;;;;3.23;1.37;;;21.10;43.30;20.10;101119.00;;;;5076234;28;20063;-67
2022/10/20 07:02:34;;;;;;;1.98;1.25;;;21.10;43.40;20.10;101116.00;;;;5067839;28;20081;-68
2022/10/20 07:04:59;;;;;;;3.00;1.17;;;21.10;43.30;20.10;101115.00;;;;5081401;28;20460;-68
2022/10/20 07:07:25;;;;;;;1.40;1.13;;;21.10;43.30;20.10;101108.00;;;;5067220;28;20111;-68
2022/10/20 07:09:51;;;;;;;4.63;1.30;;;21.00;43.20;20.10;101108.00;;;;5073639;28;20064;-68
2022/10/20 07:12:17;;;;;;;2.37;1.50;;;21.10;43.30;20.10;101106.00;;;;5064886;28;20532;-68
2022/10/20 07:14:42;;;;;;;3.05;1.35;;;21.10;43.30;20.10;101116.00;;;;5070960;28;20032;-68
2022/10/20 07:17:08;;;;;;;1.37;1.20;;;21.10;43.20;20.10;101119.00;;;;5065659;28;20038;-68
2022/10/20 07:19:34;;;;;;;2.40;1.70;;;21.10;43.30;20.10;101117.00;;;;5069313;28;20055;-68
2022/10/20 07:21:59;;;;;;;4.53;1.40;;;21.10;43.30;20.10;101112.00;;;;5068037;28;20063;-68
2022/10/20 07:24:25;;;;;;;2.07;1.47;;;21.10;43.30;20.10;101110.00;;;;5070579;28;20115;-68
2022/10/20 07:26:51;;;;;;;1.92;1.42;;;21.10;43.20;20.10;101106.00;;;;5064859;28;20031;-68
2022/10/20 07:29:18;;;;;;;1.87;1.40;;;21.10;43.20;20.10;101103.00;;;;5071106;28;20105;-68
2022/10/20 07:31:45;;;;;;;2.10;1.30;;;21.10;43.20;20.10;101112.00;;;;5066486;28;20044;-68
2022/10/20 07:34:13;;;;;;;2.53;1.30;;;21.10;43.30;20.10;101111.00;;;;5068890;28;20024;-68
2022/10/20 07:36:41;;;;;;;2.35;1.55;;;21.10;43.20;20.10;101126.00;;;;5074493;28;20478;-68
2022/10/20 07:39:06;;;;;;;1.27;0.90;;;21.10;43.20;20.10;101136.00;;;;5064682;28;20032;-68
2022/10/20 07:41:33;;;;;;;2.40;1.53;;;21.10;43.20;20.10;101124.00;;;;5055770;28;20021;-68
2022/10/20 07:43:58;;;;;;;1.70;1.20;;;21.10;43.20;20.10;101128.00;;;;5066121;28;20032;-68
2022/10/20 07:46:24;;;;;;;1.37;1.20;;;21.10;43.30;20.10;101130.00;;;;5071011;28;20032;-68
2022/10/20 07:48:50;;;;;;;2.57;1.10;;;21.10;43.30;20.10;101127.00;;;;5086915;28;20036;-68
2022/10/20 07:51:25;;;;;;;4.50;1.50;;;21.10;43.30;20.10;101122.00;;;;5070256;28;20494;-68
2022/10/20 07:53:52;;;;;;;3.65;1.50;;;21.10;43.30;20.10;101116.00;;;;5069280;28;20032;-68
2022/10/20 07:56:19;;;;;;;1.90;1.08;;;21.10;43.30;20.10;101124.00;;;;5072943;28;20492;-68
2022/10/20 07:58:45;;;;;;;1.45;1.10;;;21.10;43.20;20.10;101120.00;;;;5067234;28;20111;-68
2022/10/20 08:01:11;;;;;;;1.50;1.40;;;21.10;43.20;20.10;101112.00;;;;5067043;28;20102;-68
2022/10/20 08:03:36;;;;;;;1.53;1.10;;;21.10;43.20;20.10;101115.00;;;;5053333;28;20028;-68
2022/10/20 08:06:03;;;;;;;1.20;1.10;;;21.10;43.20;20.10;101096.00;;;;5069106;28;20528;-68
2022/10/20 08:08:28;;;;;;;2.55;1.40;;;21.10;43.20;20.10;101093.00;;;;5066964;28;20111;-68
2022/10/20 08:10:55;;;;;;;5.60;1.30;;;21.10;43.20;20.10;101093.00;;;;5066950;28;20036;-68
2022/10/20 08:13:21;;;;;;;2.40;1.20;;;21.10;43.20;20.10;101082.00;;;;5084717;28;20077;-68
2022/10/20 08:15:46;;;;;;;1.33;1.23;;;21.10;43.30;20.10;101085.00;;;;5065899;28;20398;-68
2022/10/20 08:18:12;;;;;;;1.60;1.27;;;21.10;43.20;20.10;101079.00;;;;5070404;28;20394;-68
2022/10/20 08:20:38;;;;;;;1.20;1.10;;;21.10;43.30;20.10;101074.00;;;;5068760;28;20120;-68
2022/10/20 08:23:03;;;;;;;1.43;1.33;;;21.10;43.20;20.10;101063.00;;;;5072406;28;20067;-68
2022/10/20 08:25:29;;;;;;;1.23;1.00;;;21.10;43.20;20.10;101081.00;;;;5068253;28;20095;-68
2022/10/20 08:27:55;;;;;;;3.87;1.80;;;21.00;43.20;20.10;101080.00;;;;5063942;28;20103;-68
2022/10/20 08:30:21;;;;;;;2.00;1.00;;;21.10;43.20;20.10;101072.00;;;;5070365;28;20109;-68
2022/10/20 08:32:51;;;;;;;1.83;1.17;;;21.10;43.30;20.10;101067.00;;;;5067610;28;20170;-68
2022/10/20 08:35:17;;;;;;;2.00;1.48;;;21.10;43.20;20.10;101069.00;;;;5071829;28;20474;-68
2022/10/20 08:37:43;;;;;;;1.77;1.20;;;21.10;43.20;20.10;101074.00;;;;5069335;28;20196;-68
2022/10/20 08:40:15;;;;;;;1.87;1.30;;;21.10;43.20;20.10;101069.00;;;;5062149;28;20051;-68
2022/10/20 08:42:43;;;;;;;3.20;1.23;;;21.10;43.20;20.10;101078.00;;;;5070115;28;20029;-68
2022/10/20 08:45:20;;;;;;;1.27;1.02;;;21.10;43.20;20.10;101066.00;;;;5071514;28;20276;-68
2022/10/20 08:47:56;;;;;;;1.95;1.30;;;21.10;43.20;20.10;101060.00;;;;5064517;28;20482;-68
2022/10/20 08:50:26;;;;;;;4.05;1.33;;;21.10;43.20;20.10;101062.00;;;;5067564;28;20445;-68
2022/10/20 08:52:56;;;;;;;1.60;1.30;;;21.10;43.20;20.10;101061.00;;;;5071534;28;20039;-68
2022/10/20 08:55:32;;;;;;;1.30;1.20;;;21.10;43.20;20.10;101061.00;;;;5072138;28;20047;-68
2022/10/20 08:58:09;;;;;;;2.95;1.20;;;21.10;43.20;20.10;101065.00;;;;5068489;28;20048;-68
2022/10/20 09:00:38;;;;;;;3.63;1.40;;;21.10;43.20;20.20;101059.00;;;;5070305;28;20493;-68
2022/10/20 09:03:22;;;;;;;2.00;1.25;;;21.10;43.20;20.10;101051.00;;;;5087150;28;20036;-68
2022/10/20 09:06:08;;;;;;;1.63;1.23;;;21.10;43.20;20.10;101044.00;;;;5064716;28;20515;-68
2022/10/20 09:08:36;;;;;;;2.08;1.50;;;21.20;43.30;20.10;101040.00;;;;5063339;28;20037;-68
2022/10/20 09:11:02;;;;;;;1.50;1.33;;;21.10;43.30;20.10;101038.00;;;;5052405;28;20500;-68
2022/10/20 09:13:30;;;;;;;1.58;1.40;;;21.10;43.20;20.10;101036.00;;;;5069737;28;20024;-68
2022/10/20 09:16:36;;;;;;;3.05;1.45;;;21.10;43.30;20.10;101036.00;;;;5078207;28;20033;-68
2022/10/20 09:19:03;;;;;;;2.22;1.40;;;21.10;43.30;20.10;101024.00;;;;5064035;28;20040;-68
2022/10/20 09:21:30;;;;;;;2.92;1.23;;;21.20;43.30;20.10;101020.00;;;;5059550;28;20213;-68
2022/10/20 09:23:59;;;;;;;2.00;1.58;;;21.10;43.30;20.20;101018.00;;;;5072307;28;20042;-68
2022/10/20 09:26:47;;;;;;;1.77;1.33;;;21.10;43.30;20.10;101022.00;;;;5051067;28;20131;-68
2022/10/20 09:29:20;;;;;;;2.45;1.40;;;21.10;43.40;20.20;101009.00;;;;5067437;28;20031;-68
2022/10/20 09:31:48;;;;;;;3.03;1.48;;;21.20;43.40;20.20;101019.00;;;;5062925;28;20371;-68
2022/10/20 09:34:28;;;;;;;2.45;1.30;;;21.30;43.50;20.20;101009.00;;;;5067398;28;20047;-68
2022/10/20 09:37:07;;;;;;;1.30;1.20;;;21.10;43.30;20.20;101002.00;;;;5068459;28;20038;-68
2022/10/20 09:39:41;;;;;;;1.35;1.20;;;21.20;43.40;20.20;100997.00;;;;5069093;28;20109;-68
2022/10/20 09:42:27;;;;;;;2.22;1.20;;;21.20;44.20;20.20;101000.00;;;;5066922;28;20024;-68
2022/10/20 09:44:57;;;;;;;1.95;1.20;;;21.20;43.50;20.20;100992.00;;;;5067807;28;20108;-68
2022/10/20 09:47:23;;;;;;;3.22;1.48;;;21.20;43.50;20.20;100995.00;;;;5066584;28;20033;-68
2022/10/20 09:49:55;;;;;;;1.77;1.27;;;21.20;43.50;20.20;100994.00;;;;5067317;28;20025;-68
2022/10/20 09:52:26;;;;;;;1.85;1.20;;;21.20;43.50;20.20;100987.00;;;;5062715;28;20043;-68
2022/10/20 09:54:55;;;;;;;1.50;1.40;;;21.20;43.50;20.20;100989.00;;;;5048122;28;20496;-68
2022/10/20 09:57:21;;;;;;;1.30;1.20;;;21.20;43.60;20.20;100989.00;;;;5070897;28;20062;-68
2022/10/20 09:59:49;;;;;;;1.93;1.30;;;21.20;43.50;20.20;100989.00;;;;5069061;28;20025;-68
2022/10/20 10:02:14;;;;;;;3.58;1.60;;;21.20;43.60;20.20;100990.00;;;;5067539;28;20056;-68
2022/10/20 10:04:42;;;;;;;1.63;1.30;;;21.20;43.60;20.20;100983.00;;;;5065943;28;20056;-68
2022/10/20 10:07:26;;;;;;;3.67;1.42;;;21.20;43.60;20.20;100978.00;;;;5062358;28;20073;-68
2022/10/20 10:10:03;;;;;;;2.10;1.38;;;21.20;43.70;20.20;100967.00;;;;5068340;28;20035;-68
2022/10/20 10:12:29;;;;;;;1.95;1.30;;;21.20;43.60;20.20;100965.00;;;;5066036;28;20033;-68
2022/10/20 10:15:01;;;;;;;2.10;1.52;;;21.20;43.70;20.20;100957.00;;;;5058714;28;20537;-68
2022/10/20 10:17:33;;;;;;;3.03;1.30;;;21.20;43.70;20.20;100944.00;;;;5045357;28;20458;-68
2022/10/20 10:20:00;;;;;;;1.75;1.50;;;21.20;43.70;20.20;100946.00;;;;5080338;28;20675;-68
2022/10/20 10:22:25;;;;;;;2.50;1.30;;;21.20;43.70;20.20;100940.00;;;;5064477;28;20033;-68
2022/10/20 10:24:53;;;;;;;2.33;1.50;;;21.20;43.80;20.20;100939.00;;;;5073991;28;20037;-68
2022/10/20 10:27:30;;;;;;;1.65;1.30;;;21.30;43.90;20.20;100946.00;;;;5047017;28;20037;-68
2022/10/20 10:30:29;;;;;;;2.78;1.27;;;21.20;44.60;20.20;100946.00;;;;5056167;28;20060;-68
2022/10/20 10:32:55;;;;;;;1.73;1.42;;;21.30;43.90;20.20;100928.00;;;;5063936;28;20373;-68
2022/10/20 10:35:34;;;;;;;1.67;1.33;;;21.30;43.90;20.30;100930.00;;;;5067699;28;20064;-68
2022/10/20 10:38:00;;;;;;;2.63;1.60;;;21.20;44.00;20.30;100937.00;;;;5046902;28;20385;-68
2022/10/20 10:41:12;;;;;;;5.00;1.90;;;21.30;43.90;20.30;100928.00;;;;5043852;28;20025;-68
2022/10/20 10:44:02;;;;;;;1.58;1.40;;;21.30;44.00;20.30;100909.00;;;;5076020;28;20040;-68
2022/10/20 10:46:36;;;;;;;2.28;1.40;;;21.30;44.00;20.30;100922.00;;;;5053578;28;20032;-68
2022/10/20 10:49:36;;;;;;;2.47;1.45;;;21.30;44.10;20.30;100927.00;;;;5065282;28;20082;-68
2022/10/20 10:52:23;;;;;;;1.75;1.42;;;21.30;44.10;20.30;100930.00;;;;5069845;28;20429;-68
2022/10/20 10:55:24;;;;;;;1.47;1.30;;;21.30;44.10;20.30;100924.00;;;;5079125;28;20387;-68
2022/10/20 10:58:24;;;;;;;2.20;1.60;;;21.30;44.10;20.30;100924.00;;;;5073318;28;20586;-68